createdAt,value
2018-07-20T00:01:11.340Z,18.40
2018-07-20T00:03:39.904Z,18.30
2018-07-20T00:06:08.451Z,18.30
2018-07-20T00:08:37.016Z,18.20
2018-07-20T00:11:05.639Z,18.10
2018-07-20T00:13:34.125Z,18.20
2018-07-20T00:16:02.843Z,18.20
2018-07-20T00:18:31.344Z,18.20
2018-07-20T00:20:59.852Z,18.10
2018-07-20T00:23:28.547Z,18.10
2018-07-20T00:25:57.092Z,18.10
2018-07-20T00:28:25.653Z,18.00
2018-07-20T00:30:54.222Z,18.00
2018-07-20T00:33:22.783Z,18.00
2018-07-20T00:35:51.330Z,18.00
2018-07-20T00:38:19.882Z,18.00
2018-07-20T00:40:48.484Z,18.00
2018-07-20T00:43:17.093Z,17.90
2018-07-20T00:45:45.600Z,17.90
2018-07-20T00:48:14.208Z,17.80
2018-07-20T00:50:42.748Z,17.80
2018-07-20T00:53:11.283Z,17.80
2018-07-20T00:55:39.877Z,17.90
2018-07-20T00:58:08.504Z,17.90
2018-07-20T01:00:37.113Z,17.90
2018-07-20T01:03:05.959Z,18.00
2018-07-20T01:05:34.606Z,18.00
2018-07-20T01:08:03.116Z,18.00
2018-07-20T01:10:31.720Z,18.10
2018-07-20T01:13:00.243Z,18.00
2018-07-20T01:15:28.792Z,18.00
2018-07-20T01:17:57.396Z,17.90
2018-07-20T01:20:25.938Z,18.00
2018-07-20T01:22:54.551Z,17.90
2018-07-20T01:25:23.124Z,17.80
2018-07-20T01:27:51.731Z,17.90
2018-07-20T01:30:20.303Z,17.90
2018-07-20T01:32:48.900Z,17.80
2018-07-20T01:35:17.478Z,17.80
2018-07-20T01:37:46.024Z,17.80
2018-07-20T01:40:14.599Z,17.80
2018-07-20T01:42:43.240Z,17.70
2018-07-20T01:45:11.867Z,17.60
2018-07-20T01:47:40.451Z,17.50
2018-07-20T01:50:09.212Z,17.50
2018-07-20T01:52:37.744Z,17.50
2018-07-20T01:55:06.446Z,17.50
2018-07-20T01:57:35.020Z,17.30
2018-07-20T02:00:03.705Z,17.30
2018-07-20T02:02:32.264Z,17.30
2018-07-20T02:05:00.835Z,17.30
2018-07-20T02:07:29.395Z,17.20
2018-07-20T02:09:57.976Z,17.20
2018-07-20T02:12:26.549Z,17.30
2018-07-20T02:14:55.077Z,17.20
2018-07-20T02:17:23.632Z,17.20
2018-07-20T02:19:52.228Z,17.10
2018-07-20T02:22:20.778Z,17.00
2018-07-20T02:24:49.937Z,17.00
2018-07-20T02:27:18.569Z,17.00
2018-07-20T02:29:47.159Z,16.90
2018-07-20T02:32:15.774Z,16.90
2018-07-20T02:34:44.291Z,16.90
2018-07-20T02:37:12.923Z,16.90
2018-07-20T02:39:41.437Z,16.80
2018-07-20T02:44:38.164Z,16.70
2018-07-20T02:47:06.901Z,16.70
2018-07-20T02:49:35.405Z,16.60
2018-07-20T02:52:03.950Z,16.50
2018-07-20T02:54:32.540Z,16.30
2018-07-20T02:57:01.110Z,16.20
2018-07-20T02:59:29.701Z,16.20
2018-07-20T03:01:58.274Z,16.10
2018-07-20T03:04:26.871Z,16.10
2018-07-20T03:06:55.450Z,16.10
2018-07-20T03:09:24.106Z,16.20
2018-07-20T03:11:52.628Z,16.30
2018-07-20T03:14:21.284Z,16.20
2018-07-20T03:16:50.354Z,16.40
2018-07-20T03:19:18.915Z,16.40
2018-07-20T03:21:47.448Z,16.40
2018-07-20T03:24:15.976Z,16.40
2018-07-20T03:26:44.619Z,16.50
2018-07-20T03:29:13.204Z,16.50
2018-07-20T03:31:41.733Z,16.40
2018-07-20T03:34:10.350Z,16.40
2018-07-20T03:36:38.902Z,16.40
2018-07-20T03:39:08.904Z,16.50
2018-07-20T03:41:38.100Z,16.50
2018-07-20T03:44:07.124Z,16.50
2018-07-20T03:46:35.794Z,16.40
2018-07-20T03:49:04.411Z,16.30
2018-07-20T03:51:32.976Z,16.30
2018-07-20T03:54:01.510Z,16.40
2018-07-20T03:56:30.064Z,16.30
2018-07-20T03:58:58.644Z,16.30
2018-07-20T04:01:27.232Z,16.20
2018-07-20T04:03:55.764Z,16.30
2018-07-20T04:06:24.267Z,16.50
2018-07-20T04:08:52.936Z,16.60
2018-07-20T04:11:21.537Z,16.70
2018-07-20T04:13:50.069Z,16.80
2018-07-20T04:16:18.626Z,16.90
2018-07-20T04:18:47.192Z,17.10
2018-07-20T04:21:15.701Z,17.20
2018-07-20T04:23:44.317Z,17.30
2018-07-20T04:26:12.844Z,17.40
2018-07-20T04:28:41.451Z,17.50
2018-07-20T04:31:10.077Z,17.50
2018-07-20T04:33:38.603Z,17.40
2018-07-20T04:36:07.454Z,17.40
2018-07-20T04:38:36.060Z,17.40
2018-07-20T04:41:04.663Z,17.50
2018-07-20T04:43:33.251Z,17.60
2018-07-20T04:46:02.097Z,17.60
2018-07-20T04:48:30.700Z,17.60
2018-07-20T04:50:59.208Z,17.70
2018-07-20T04:53:27.828Z,17.80
2018-07-20T04:55:56.350Z,17.90
2018-07-20T04:58:24.976Z,18.00
2018-07-20T05:00:53.522Z,18.10
2018-07-20T05:03:22.040Z,18.30
2018-07-20T05:05:50.666Z,18.50
2018-07-20T05:08:19.192Z,18.80
2018-07-20T05:10:47.753Z,19.40
2018-07-20T05:13:16.315Z,20.20
2018-07-20T05:15:44.946Z,20.90
2018-07-20T05:18:13.527Z,21.60
2018-07-20T05:20:42.115Z,22.40
2018-07-20T05:23:10.641Z,23.50
2018-07-20T05:25:39.271Z,24.60
2018-07-20T05:28:07.803Z,25.30
2018-07-20T05:30:36.385Z,26.00
2018-07-20T05:33:05.753Z,27.00
2018-07-20T05:35:34.502Z,28.00
2018-07-20T05:38:03.098Z,27.60
2018-07-20T05:40:31.680Z,27.80
2018-07-20T05:43:00.296Z,27.60
2018-07-20T05:45:29.746Z,28.10
2018-07-20T05:47:58.301Z,28.80
2018-07-20T05:50:26.908Z,29.10
2018-07-20T05:52:55.986Z,29.60
2018-07-20T05:55:24.590Z,29.20
2018-07-20T05:57:53.219Z,28.50
2018-07-20T06:00:21.770Z,28.50
2018-07-20T06:05:18.649Z,29.40
2018-07-20T06:07:47.192Z,29.20
2018-07-20T06:10:15.792Z,29.40
2018-07-20T06:12:44.382Z,29.30
2018-07-20T06:15:12.933Z,28.90
2018-07-20T06:17:41.490Z,28.80
2018-07-20T06:20:10.668Z,28.60
2018-07-20T06:22:39.576Z,28.60
2018-07-20T06:25:08.210Z,28.40
2018-07-20T06:27:36.791Z,28.10
2018-07-20T06:30:06.585Z,27.70
2018-07-20T06:32:35.130Z,28.30
2018-07-20T06:35:03.796Z,28.50
2018-07-20T06:37:32.814Z,28.40
2018-07-20T06:40:01.443Z,28.00
2018-07-20T06:42:30.045Z,27.90
2018-07-20T06:44:58.614Z,27.50
2018-07-20T06:47:27.201Z,27.10
2018-07-20T06:49:56.588Z,27.60
2018-07-20T06:52:25.087Z,28.20
2018-07-20T06:54:53.652Z,28.60
2018-07-20T06:57:22.152Z,29.60
2018-07-20T06:59:50.787Z,30.50
2018-07-20T07:02:19.337Z,31.10
2018-07-20T07:04:47.852Z,31.80
2018-07-20T07:07:16.430Z,32.80
2018-07-20T07:09:44.991Z,33.50
2018-07-20T07:12:13.560Z,33.50
2018-07-20T07:14:42.136Z,33.70
2018-07-20T07:17:11.275Z,33.90
2018-07-20T07:19:40.670Z,34.00
2018-07-20T07:22:09.285Z,33.70
2018-07-20T07:24:37.836Z,33.30
2018-07-20T07:27:06.732Z,32.50
2018-07-20T07:29:35.240Z,31.40
2018-07-20T07:32:03.752Z,30.60
2018-07-20T07:34:32.344Z,29.90
2018-07-20T07:37:00.861Z,29.40
2018-07-20T07:39:29.398Z,29.20
2018-07-20T07:41:58.029Z,29.00
2018-07-20T07:44:26.574Z,29.00
2018-07-20T07:46:55.144Z,29.10
2018-07-20T07:49:23.848Z,29.00
2018-07-20T07:51:52.367Z,29.30
2018-07-20T07:54:20.958Z,29.70
2018-07-20T07:56:50.128Z,30.50
2018-07-20T07:59:18.665Z,31.30
2018-07-20T08:01:47.440Z,32.30
2018-07-20T08:04:16.174Z,32.70
2018-07-20T08:06:44.742Z,33.30
2018-07-20T08:09:14.632Z,33.50
2018-07-20T08:11:43.221Z,33.90
2018-07-20T08:14:12.927Z,34.10
2018-07-20T08:16:41.500Z,34.50
2018-07-20T08:19:10.042Z,35.50
2018-07-20T08:21:38.649Z,35.20
2018-07-20T08:24:07.465Z,35.40
2018-07-20T08:26:36.104Z,35.50
2018-07-20T08:29:04.887Z,35.70
2018-07-20T08:31:33.503Z,35.90
2018-07-20T08:36:30.426Z,36.50
2018-07-20T08:38:59.097Z,36.30
2018-07-20T08:41:27.734Z,36.50
2018-07-20T08:43:56.284Z,36.70
2018-07-20T08:46:25.850Z,36.50
2018-07-20T08:48:54.513Z,36.20
2018-07-20T08:51:23.224Z,36.00
2018-07-20T08:53:51.920Z,36.00
2018-07-20T08:56:20.432Z,36.70
2018-07-20T08:58:49.024Z,37.00
2018-07-20T09:01:17.861Z,36.90
2018-07-20T09:03:46.435Z,37.00
2018-07-20T09:06:15.023Z,37.10
2018-07-20T09:08:43.601Z,37.50
2018-07-20T09:11:13.118Z,38.00
2018-07-20T09:13:41.742Z,38.30
2018-07-20T09:16:10.225Z,38.00
2018-07-20T09:18:38.740Z,38.20
2018-07-20T09:21:07.472Z,38.10
2018-07-20T09:23:36.113Z,38.10
2018-07-20T09:26:04.817Z,38.40
2018-07-20T09:28:33.440Z,38.90
2018-07-20T09:31:02.021Z,38.90
2018-07-20T09:33:30.608Z,39.10
2018-07-20T09:35:59.175Z,39.20
2018-07-20T09:38:27.810Z,39.10
2018-07-20T09:40:56.931Z,39.10
2018-07-20T09:43:25.515Z,39.00
2018-07-20T09:45:54.056Z,39.10
2018-07-20T09:48:22.580Z,38.90
2018-07-20T09:50:51.170Z,39.00
2018-07-20T09:53:19.768Z,39.60
2018-07-20T09:58:16.579Z,39.80
2018-07-20T10:00:51.248Z,39.00
2018-07-20T10:03:20.872Z,39.00
2018-07-20T10:05:49.548Z,39.40
2018-07-20T10:08:19.817Z,39.80
2018-07-20T10:10:48.482Z,40.10
2018-07-20T10:13:17.728Z,39.90
2018-07-20T10:15:46.325Z,40.20
2018-07-20T10:18:15.436Z,40.20
2018-07-20T10:20:44.064Z,40.20
2018-07-20T10:23:12.663Z,40.30
2018-07-20T10:25:41.424Z,40.20
2018-07-20T10:28:09.899Z,40.50
2018-07-20T10:30:38.501Z,40.70
2018-07-20T10:33:07.241Z,39.80
2018-07-20T10:35:36.107Z,39.20
2018-07-20T10:38:04.940Z,38.40
2018-07-20T10:40:33.585Z,37.90
2018-07-20T10:43:02.155Z,37.70
2018-07-20T10:45:30.752Z,37.50
2018-07-20T10:47:59.320Z,37.20
2018-07-20T10:50:27.950Z,37.50
2018-07-20T10:52:56.491Z,37.40
2018-07-20T10:55:25.042Z,37.10
2018-07-20T10:57:53.616Z,36.70
2018-07-20T11:00:22.195Z,37.10
2018-07-20T11:05:19.024Z,38.70
2018-07-20T11:07:47.585Z,39.50
2018-07-20T11:10:16.177Z,39.70
2018-07-20T11:12:44.896Z,39.20
2018-07-20T11:15:13.516Z,38.60
2018-07-20T11:20:11.362Z,37.80
2018-07-20T11:22:39.997Z,37.60
2018-07-20T11:25:08.700Z,37.20
2018-07-20T11:27:37.386Z,37.10
2018-07-20T11:30:06.336Z,37.00
2018-07-20T11:32:34.904Z,37.20
2018-07-20T11:35:03.947Z,37.50
2018-07-20T11:37:32.535Z,37.80
2018-07-20T11:40:01.104Z,38.40
2018-07-20T11:42:29.747Z,38.90
2018-07-20T11:44:58.357Z,39.70
2018-07-20T11:47:26.968Z,39.80
2018-07-20T11:49:55.590Z,39.30
2018-07-20T11:52:24.334Z,39.50
2018-07-20T11:54:52.945Z,39.80
2018-07-20T11:57:21.499Z,39.70
2018-07-20T11:59:50.082Z,40.10
2018-07-20T12:02:18.727Z,40.20
2018-07-20T12:04:47.454Z,41.20
2018-07-20T12:07:16.064Z,41.80
2018-07-20T12:09:44.635Z,42.80
2018-07-20T12:12:13.149Z,42.50
2018-07-20T12:14:41.733Z,42.80
2018-07-20T12:17:10.534Z,42.70
2018-07-20T12:19:39.167Z,42.50
2018-07-20T12:22:07.861Z,41.80
2018-07-20T12:24:36.440Z,42.20
2018-07-20T12:27:05.078Z,42.20
2018-07-20T12:29:33.624Z,42.70
2018-07-20T12:32:02.239Z,42.90
2018-07-20T12:34:30.820Z,43.20
2018-07-20T12:36:59.352Z,43.90
2018-07-20T12:39:27.974Z,43.30
2018-07-20T12:41:56.809Z,42.60
2018-07-20T12:44:25.440Z,42.80
2018-07-20T12:46:53.965Z,42.70
2018-07-20T12:49:22.563Z,42.60
2018-07-20T12:51:51.434Z,42.50
2018-07-20T12:54:20.054Z,42.20
2018-07-20T12:56:48.576Z,41.70
2018-07-20T13:01:45.385Z,41.90
2018-07-20T13:04:14.579Z,41.90
2018-07-20T13:06:43.131Z,41.30
2018-07-20T13:09:12.981Z,41.00
2018-07-20T13:11:42.285Z,41.10
2018-07-20T13:14:11.782Z,40.90
2018-07-20T13:16:40.796Z,40.70
2018-07-20T13:19:09.403Z,41.00
2018-07-20T13:21:38.045Z,41.00
2018-07-20T13:24:06.924Z,41.30
2018-07-20T13:26:35.600Z,41.10
2018-07-20T13:29:04.198Z,40.90
2018-07-20T13:31:32.731Z,41.20
2018-07-20T13:34:01.291Z,41.30
2018-07-20T13:36:29.851Z,40.60
2018-07-20T13:38:58.438Z,40.50
2018-07-20T13:41:27.011Z,40.30
2018-07-20T13:43:55.553Z,40.20
2018-07-20T13:46:24.168Z,40.10
2018-07-20T13:48:52.745Z,40.30
2018-07-20T13:51:21.332Z,40.30
2018-07-20T13:53:49.883Z,40.40
2018-07-20T13:56:18.511Z,40.70
2018-07-20T13:58:47.125Z,41.00
2018-07-20T14:01:15.826Z,41.50
2018-07-20T14:03:44.392Z,41.80
2018-07-20T14:06:13.109Z,42.30
2018-07-20T14:08:41.702Z,42.40
2018-07-20T14:11:10.258Z,42.00
2018-07-20T14:13:39.036Z,42.40
2018-07-20T14:16:07.625Z,42.70
2018-07-20T14:18:36.211Z,42.80
2018-07-20T14:21:04.893Z,42.50
2018-07-20T14:23:33.446Z,42.50
2018-07-20T14:26:02.409Z,42.20
2018-07-20T14:28:30.992Z,42.10
2018-07-20T14:30:59.606Z,41.90
2018-07-20T14:33:28.276Z,41.70
2018-07-20T14:35:56.936Z,41.80
2018-07-20T14:38:25.513Z,41.40
2018-07-20T14:40:54.125Z,41.30
2018-07-20T14:43:22.979Z,40.90
2018-07-20T14:45:51.916Z,40.60
2018-07-20T14:48:20.513Z,40.60
2018-07-20T14:50:49.135Z,40.60
2018-07-20T14:53:17.903Z,40.60
2018-07-20T14:55:46.489Z,40.60
2018-07-20T14:58:15.184Z,40.30
2018-07-20T15:00:43.793Z,39.90
2018-07-20T15:03:12.388Z,39.60
2018-07-20T15:05:40.944Z,39.10
2018-07-20T15:08:09.492Z,38.60
2018-07-20T15:10:38.155Z,38.50
2018-07-20T15:13:06.682Z,38.20
2018-07-20T15:15:35.336Z,37.90
2018-07-20T15:18:04.019Z,37.30
2018-07-20T15:20:32.495Z,37.10
2018-07-20T15:23:01.088Z,36.90
2018-07-20T15:25:29.726Z,36.40
2018-07-20T15:27:58.236Z,36.00
2018-07-20T15:30:26.827Z,35.60
2018-07-20T15:32:55.410Z,35.20
2018-07-20T15:35:23.963Z,34.80
2018-07-20T15:37:52.575Z,34.50
2018-07-20T15:40:21.132Z,34.10
2018-07-20T15:42:49.721Z,33.90
2018-07-20T15:45:18.481Z,33.60
2018-07-20T15:47:47.098Z,33.30
2018-07-20T15:50:15.717Z,33.00
2018-07-20T15:55:13.286Z,32.50
2018-07-20T15:57:41.907Z,32.40
2018-07-20T16:00:10.537Z,32.20
2018-07-20T16:02:39.128Z,32.30
2018-07-20T16:05:07.714Z,32.20
2018-07-20T16:07:36.276Z,32.10
2018-07-20T16:10:05.216Z,31.90
2018-07-20T16:12:33.758Z,31.70
2018-07-20T16:15:02.294Z,31.30
2018-07-20T16:17:30.825Z,30.30
2018-07-20T16:19:59.427Z,29.40
2018-07-20T16:22:29.987Z,28.70
2018-07-20T16:24:59.955Z,28.20
2018-07-20T16:27:28.498Z,27.70
2018-07-20T16:29:57.097Z,27.10
2018-07-20T16:32:25.617Z,26.50
2018-07-20T16:34:54.183Z,26.20
2018-07-20T16:37:22.697Z,25.90
2018-07-20T16:39:51.254Z,25.70
2018-07-20T16:42:19.805Z,25.30
2018-07-20T16:44:48.589Z,25.10
2018-07-20T16:47:17.158Z,25.10
2018-07-20T16:49:45.661Z,25.00
2018-07-20T16:54:42.372Z,24.80
2018-07-20T16:57:10.914Z,24.80
2018-07-20T16:59:39.473Z,24.70
2018-07-20T17:02:08.114Z,24.40
2018-07-20T17:04:36.657Z,24.10
2018-07-20T17:07:05.291Z,23.80
2018-07-20T17:09:33.849Z,23.50
2018-07-20T17:12:02.364Z,23.10
2018-07-20T17:14:31.007Z,22.70
2018-07-20T17:16:59.526Z,22.50
2018-07-20T17:19:28.209Z,22.40
2018-07-20T17:21:56.714Z,22.40
2018-07-20T17:24:25.256Z,22.60
2018-07-20T17:26:53.758Z,22.60
2018-07-20T17:29:22.661Z,22.40
2018-07-20T17:31:51.308Z,22.10
2018-07-20T17:34:19.900Z,21.80
2018-07-20T17:36:48.432Z,21.60
2018-07-20T17:39:17.083Z,21.40
2018-07-20T17:41:45.665Z,21.30
2018-07-20T17:44:14.239Z,21.20
2018-07-20T17:46:42.816Z,21.20
2018-07-20T17:49:11.377Z,21.00
2018-07-20T17:51:39.954Z,21.00
2018-07-20T17:54:08.544Z,20.80
2018-07-20T17:56:37.128Z,20.70
2018-07-20T17:59:05.730Z,20.70
2018-07-20T18:01:34.551Z,20.80
2018-07-20T18:04:03.317Z,20.80
2018-07-20T18:06:31.931Z,20.70
2018-07-20T18:09:00.500Z,20.50
2018-07-20T18:11:29.076Z,20.40
2018-07-20T18:13:57.740Z,20.40
2018-07-20T18:16:26.391Z,20.20
2018-07-20T18:18:54.920Z,20.20
2018-07-20T18:21:23.538Z,20.10
2018-07-20T18:23:52.100Z,20.10
2018-07-20T18:26:20.760Z,20.00
2018-07-20T18:28:49.326Z,19.90
2018-07-20T18:31:17.985Z,19.80
2018-07-20T18:33:46.635Z,19.70
2018-07-20T18:36:15.187Z,19.70
2018-07-20T18:38:44.653Z,19.80
2018-07-20T18:41:13.231Z,19.90
2018-07-20T18:43:41.842Z,20.10
2018-07-20T18:46:10.484Z,20.10
2018-07-20T18:48:39.041Z,20.20
2018-07-20T18:51:07.708Z,20.30
2018-07-20T18:53:36.320Z,20.30
2018-07-20T18:56:05.102Z,20.40
2018-07-20T18:58:33.563Z,20.50
2018-07-20T19:01:02.282Z,20.50
2018-07-20T19:03:30.896Z,20.50
2018-07-20T19:05:59.524Z,20.50
2018-07-20T19:08:28.116Z,20.20
2018-07-20T19:10:56.732Z,20.10
2018-07-20T19:13:25.337Z,20.10
2018-07-20T19:15:53.900Z,20.10
2018-07-20T19:18:22.461Z,20.10
2018-07-20T19:20:51.016Z,20.10
2018-07-20T19:23:19.628Z,20.10
2018-07-20T19:25:48.238Z,20.00
2018-07-20T19:28:16.789Z,19.90
2018-07-20T19:30:45.458Z,19.80
2018-07-20T19:33:14.019Z,19.50
2018-07-20T19:35:42.640Z,19.40
2018-07-20T19:38:11.245Z,19.40
2018-07-20T19:40:39.855Z,19.50
2018-07-20T19:43:08.432Z,19.40
2018-07-20T19:45:36.993Z,19.50
2018-07-20T19:48:05.890Z,19.40
2018-07-20T19:50:34.507Z,19.40
2018-07-20T19:53:03.199Z,19.50
2018-07-20T19:55:31.812Z,19.40
2018-07-20T19:58:00.394Z,19.40
2018-07-20T20:00:29.041Z,19.40
2018-07-20T20:02:57.780Z,19.30
2018-07-20T20:05:26.406Z,19.20
2018-07-20T20:07:55.005Z,19.20
2018-07-20T20:10:23.588Z,19.20
2018-07-20T20:12:52.148Z,19.30
2018-07-20T20:15:20.716Z,19.40
2018-07-20T20:17:49.483Z,19.40
2018-07-20T20:20:18.092Z,19.30
2018-07-20T20:22:46.665Z,19.30
2018-07-20T20:25:15.550Z,19.30
2018-07-20T20:27:44.159Z,19.40
2018-07-20T20:30:12.792Z,19.50
2018-07-20T20:32:41.397Z,19.50
2018-07-20T20:35:09.920Z,19.40
2018-07-20T20:37:39.732Z,19.30
2018-07-20T20:40:08.979Z,19.20
2018-07-20T20:42:37.755Z,19.20
2018-07-20T20:45:07.404Z,19.20
2018-07-20T20:47:36.002Z,19.30
2018-07-20T20:50:04.770Z,19.40
2018-07-20T20:52:33.414Z,19.40
2018-07-20T20:55:02.083Z,19.40
2018-07-20T20:57:30.967Z,19.40
2018-07-20T20:59:59.623Z,19.30
2018-07-20T21:02:28.167Z,19.20
2018-07-20T21:04:56.776Z,19.10
2018-07-20T21:09:53.603Z,19.20
2018-07-20T21:12:22.656Z,19.30
2018-07-20T21:14:51.325Z,19.20
2018-07-20T21:19:48.229Z,19.30
2018-07-20T21:22:16.887Z,19.40
2018-07-20T21:24:45.469Z,19.40
2018-07-20T21:27:14.396Z,19.50
2018-07-20T21:29:43.006Z,19.40
2018-07-20T21:32:11.621Z,19.40
2018-07-20T21:34:40.323Z,19.40
2018-07-20T21:37:08.849Z,19.40
2018-07-20T21:39:37.467Z,19.40
2018-07-20T21:42:06.416Z,19.30
2018-07-20T21:44:35.074Z,19.30
2018-07-20T21:47:04.034Z,19.00
2018-07-20T21:49:32.568Z,18.70
2018-07-20T21:52:01.204Z,18.40
2018-07-20T21:54:29.922Z,18.20
2018-07-20T21:56:58.590Z,18.20
2018-07-20T21:59:27.180Z,18.20
2018-07-20T22:01:55.787Z,18.30
2018-07-20T22:04:24.771Z,18.20
2018-07-20T22:06:53.385Z,18.20
2018-07-20T22:09:21.947Z,18.40
2018-07-20T22:11:50.826Z,18.40
2018-07-20T22:14:19.499Z,18.40
2018-07-20T22:16:48.154Z,18.40
2018-07-20T22:19:16.886Z,18.50
2018-07-20T22:21:45.478Z,18.50
2018-07-20T22:24:14.036Z,18.50
2018-07-20T22:26:42.652Z,18.60
2018-07-20T22:29:11.269Z,18.60
2018-07-20T22:31:39.898Z,18.60
2018-07-20T22:36:36.767Z,18.60
2018-07-20T22:39:08.849Z,18.50
2018-07-20T22:41:37.469Z,18.40
2018-07-20T22:44:06.162Z,18.40
2018-07-20T22:46:34.769Z,18.30
2018-07-20T22:49:03.454Z,18.20
2018-07-20T22:51:32.073Z,18.20
2018-07-20T22:54:00.646Z,18.30
2018-07-20T22:56:29.229Z,18.30
2018-07-20T22:58:57.811Z,18.40
2018-07-20T23:01:26.407Z,18.30
2018-07-20T23:03:54.938Z,18.20
2018-07-20T23:06:23.511Z,18.20
2018-07-20T23:11:20.365Z,18.20
2018-07-20T23:13:51.816Z,18.20
2018-07-20T23:16:20.434Z,18.20
2018-07-20T23:18:48.980Z,18.10
2018-07-20T23:21:17.866Z,18.00
2018-07-20T23:23:46.448Z,18.00
2018-07-20T23:26:15.408Z,17.80
2018-07-20T23:28:43.987Z,17.80
2018-07-20T23:31:12.588Z,17.80
2018-07-20T23:33:41.148Z,17.60
2018-07-20T23:36:09.697Z,17.60
2018-07-20T23:38:38.301Z,17.60
2018-07-20T23:41:06.994Z,17.40
2018-07-20T23:43:35.572Z,17.30
2018-07-20T23:46:04.260Z,17.40
2018-07-20T23:48:32.844Z,17.40
2018-07-20T23:51:01.448Z,17.50
2018-07-20T23:53:30.033Z,17.50
2018-07-20T23:55:58.609Z,17.50
2018-07-20T23:58:27.255Z,17.40
